Trowbridge, Illinois
Current Conditions -  °F | °C
As of 11:34 AM on Sunday 23 Nov 2014 (Local Time) from KMTO Reporting Station
Light Rain Light Rain  
Wind Chill: 51°   Ceiling: 1200
Heat Index: 51°   Visibility: 10mi
Dew Point: 47°   Wind: 14mph
Humidity: 86%   Direction: 160°SSE
Pressure: 29.64"   Gusts: NA
Location:  39.3144°N, 88.4504°W
Report Text: KMTO 231734Z AUTO 16012KT 10SM -RA BKN012 OVC017 11/08 A2964 RMK AO2 P0000 T01060083
Loading
Personal Weather Stations






























Interactive Weather Map New forecast layout! Learn more

10-Day Weather Forecast

Advertisements
Track Severe Weather on mobile